Time;durP1;ratioP1;P1;durP2;ratioP2;P2;SDS_P1;SDS_P2;PMS_P1;PMS_P2;Temp;Humidity;BMP_temperature;BMP_pressure;BME280_temperature;BME280_humidity;BME280_pressure;Samples;Min_cycle;Max_cycle;Signal;HPM_P1;HPM_P2
2021/06/12 00:01:38;;;;;;;;;3.00;3.00;;;;;;;;5071508;28;8912;-43
2021/06/12 00:04:04;;;;;;;;;2.67;2.67;;;;;;;;5081980;27;8802;-44
2021/06/12 00:06:29;;;;;;;;;2.00;2.00;;;;;;;;5090352;28;9213;-44
2021/06/12 00:08:54;;;;;;;;;3.00;3.00;;;;;;;;5076826;28;8823;-39
2021/06/12 00:11:19;;;;;;;;;3.00;3.00;;;;;;;;5094886;27;9217;-37
2021/06/12 00:13:45;;;;;;;;;4.00;3.00;;;;;;;;5093125;28;8781;-40
2021/06/12 00:16:10;;;;;;;;;3.00;2.00;;;;;;;;5094130;28;8777;-40
2021/06/12 00:18:35;;;;;;;;;3.00;3.00;;;;;;;;5089809;28;8792;-40
2021/06/12 00:21:02;;;;;;;;;3.67;3.00;;;;;;;;5082585;28;8790;-41
2021/06/12 00:23:27;;;;;;;;;3.00;3.00;;;;;;;;5081086;28;8764;-40
2021/06/12 00:25:52;;;;;;;;;3.00;3.00;;;;;;;;5095129;28;8830;-40
2021/06/12 00:28:18;;;;;;;;;3.00;3.00;;;;;;;;5098867;28;8808;-40
2021/06/12 00:30:43;;;;;;;;;3.00;3.00;;;;;;;;5096127;28;8808;-40
2021/06/12 00:33:08;;;;;;;;;3.00;3.00;;;;;;;;5094779;27;8789;-40
2021/06/12 00:35:34;;;;;;;;;2.67;2.67;;;;;;;;5103868;28;8814;-42
2021/06/12 00:37:59;;;;;;;;;2.33;2.33;;;;;;;;5097645;28;8795;-40
2021/06/12 00:40:25;;;;;;;;;3.00;2.00;;;;;;;;5103308;28;8815;-40
2021/06/12 00:42:51;;;;;;;;;3.33;3.00;;;;;;;;5100721;27;8893;-40
2021/06/12 00:45:19;;;;;;;;;2.00;2.00;;;;;;;;5104506;27;8768;-40
2021/06/12 00:47:48;;;;;;;;;2.50;2.50;;;;;;;;5102945;27;8844;-41
2021/06/12 00:50:14;;;;;;;;;2.25;2.00;;;;;;;;5105535;28;8776;-40
2021/06/12 00:52:39;;;;;;;;;3.00;2.25;;;;;;;;5100338;27;8780;-40
2021/06/12 00:55:05;;;;;;;;;2.00;2.00;;;;;;;;5105056;27;9568;-40
2021/06/12 00:57:31;;;;;;;;;3.00;2.75;;;;;;;;5098678;28;8822;-40
2021/06/12 00:59:56;;;;;;;;;2.00;2.00;;;;;;;;5083786;28;8785;-40
2021/06/12 01:02:22;;;;;;;;;2.33;2.33;;;;;;;;5080743;28;8879;-40
2021/06/12 01:04:47;;;;;;;;;1.67;1.67;;;;;;;;5086083;28;8758;-40
2021/06/12 01:07:12;;;;;;;;;2.67;2.67;;;;;;;;5078649;28;8984;-41
2021/06/12 01:09:37;;;;;;;;;0.67;0.67;;;;;;;;5084942;28;8886;-41
2021/06/12 01:12:29;;;;;;;;;2.00;2.00;;;;;;;;5100572;27;8801;-41
2021/06/12 01:14:58;;;;;;;;;2.75;2.75;;;;;;;;5065965;28;9280;-40
2021/06/12 01:17:32;;;;;;;;;1.50;1.50;;;;;;;;5100327;27;8784;-40
2021/06/12 01:20:04;;;;;;;;;1.25;1.00;;;;;;;;5105636;28;8772;-40
2021/06/12 01:22:48;;;;;;;;;2.75;2.75;;;;;;;;5103188;27;8903;-41
2021/06/12 01:25:32;;;;;;;;;3.00;3.00;;;;;;;;5097672;28;8796;-40
2021/06/12 01:28:00;;;;;;;;;1.75;1.75;;;;;;;;5097105;27;8846;-40
2021/06/12 01:30:29;;;;;;;;;1.75;1.75;;;;;;;;5080699;27;9643;-39
2021/06/12 01:32:57;;;;;;;;;1.75;1.75;;;;;;;;5084534;28;8793;-40
2021/06/12 01:35:25;;;;;;;;;2.50;2.25;;;;;;;;5079697;28;8746;-40
2021/06/12 01:37:51;;;;;;;;;2.75;2.75;;;;;;;;5086570;28;8800;-40
2021/06/12 01:40:17;;;;;;;;;2.00;2.00;;;;;;;;5081968;28;8769;-40
2021/06/12 01:42:44;;;;;;;;;2.00;2.00;;;;;;;;5089445;28;8922;-40
2021/06/12 01:45:10;;;;;;;;;2.00;1.25;;;;;;;;5094573;27;8758;-40
2021/06/12 01:47:35;;;;;;;;;2.67;2.67;;;;;;;;5100803;28;8837;-39
2021/06/12 01:50:01;;;;;;;;;2.67;2.67;;;;;;;;5094038;28;8785;-40
2021/06/12 01:52:28;;;;;;;;;1.75;1.75;;;;;;;;5101151;27;8774;-39
2021/06/12 01:54:55;;;;;;;;;2.00;2.00;;;;;;;;5093880;27;8783;-40
2021/06/12 01:57:20;;;;;;;;;1.75;1.75;;;;;;;;5080037;28;9783;-40
2021/06/12 01:59:47;;;;;;;;;1.67;1.67;;;;;;;;5092788;28;8775;-40
2021/06/12 02:02:13;;;;;;;;;1.50;1.50;;;;;;;;5096434;28;8784;-40
2021/06/12 02:04:39;;;;;;;;;2.00;2.00;;;;;;;;5080990;28;8762;-40
2021/06/12 02:07:06;;;;;;;;;2.67;1.67;;;;;;;;5085135;28;11339;-40
2021/06/12 02:09:32;;;;;;;;;1.00;1.00;;;;;;;;5086727;27;8740;-40
2021/06/12 02:11:58;;;;;;;;;2.33;1.67;;;;;;;;5101511;28;8778;-39
2021/06/12 02:14:23;;;;;;;;;1.67;1.67;;;;;;;;5099661;27;9526;-39
2021/06/12 02:16:49;;;;;;;;;2.00;1.00;;;;;;;;5087990;27;11464;-40
2021/06/12 02:19:14;;;;;;;;;2.25;2.25;;;;;;;;5092424;27;8813;-40
2021/06/12 02:21:40;;;;;;;;;2.00;2.00;;;;;;;;5098484;28;8772;-40
2021/06/12 02:24:06;;;;;;;;;1.67;1.33;;;;;;;;5083500;28;8763;-40
2021/06/12 02:26:36;;;;;;;;;1.67;1.33;;;;;;;;5080479;28;11466;-40
2021/06/12 02:29:01;;;;;;;;;1.25;1.25;;;;;;;;5078989;28;8770;-40
2021/06/12 02:31:28;;;;;;;;;1.33;1.33;;;;;;;;5080166;28;8812;-40
2021/06/12 02:33:53;;;;;;;;;2.00;2.00;;;;;;;;5082220;28;8888;-40
2021/06/12 02:36:21;;;;;;;;;2.67;2.67;;;;;;;;5084040;28;8885;-40
2021/06/12 02:38:47;;;;;;;;;1.75;1.25;;;;;;;;5082553;28;8824;-40
2021/06/12 02:41:13;;;;;;;;;2.67;2.33;;;;;;;;5076931;28;9782;-40
2021/06/12 02:43:39;;;;;;;;;0.50;0.50;;;;;;;;5082869;28;11450;-40
2021/06/12 02:46:07;;;;;;;;;2.00;2.00;;;;;;;;5082008;28;8778;-40
2021/06/12 02:48:32;;;;;;;;;1.50;1.50;;;;;;;;5081937;28;8856;-39
2021/06/12 02:50:59;;;;;;;;;1.00;1.00;;;;;;;;5096762;28;8898;-40
2021/06/12 02:53:26;;;;;;;;;1.25;1.25;;;;;;;;5082176;28;8781;-40
2021/06/12 02:55:53;;;;;;;;;1.67;1.67;;;;;;;;5078758;28;8746;-40
2021/06/12 02:58:23;;;;;;;;;1.00;1.00;;;;;;;;5081387;28;8840;-40
2021/06/12 03:00:49;;;;;;;;;1.00;1.00;;;;;;;;5076626;28;8804;-39
2021/06/12 03:03:14;;;;;;;;;0.50;0.50;;;;;;;;5082223;28;8777;-40
2021/06/12 03:05:43;;;;;;;;;0.67;0.67;;;;;;;;5078560;28;8780;-39
2021/06/12 03:08:08;;;;;;;;;1.00;1.00;;;;;;;;5084437;28;8770;-40
2021/06/12 03:10:35;;;;;;;;;0.67;0.67;;;;;;;;5080709;28;8781;-40
2021/06/12 03:13:02;;;;;;;;;0.50;0.50;;;;;;;;5082434;28;8862;-40
2021/06/12 03:15:28;;;;;;;;;1.00;1.00;;;;;;;;5077161;27;12617;-40
2021/06/12 03:17:54;;;;;;;;;1.00;1.00;;;;;;;;5099569;27;8768;-40
2021/06/12 03:20:20;;;;;;;;;1.67;1.67;;;;;;;;5076621;28;8806;-40
2021/06/12 03:22:47;;;;;;;;;2.75;1.25;;;;;;;;5083372;28;8781;-40
2021/06/12 03:25:14;;;;;;;;;0.50;0.50;;;;;;;;5077673;28;8796;-39
2021/06/12 03:27:41;;;;;;;;;1.25;1.25;;;;;;;;5078948;28;8754;-40
2021/06/12 03:30:07;;;;;;;;;1.25;1.25;;;;;;;;5080108;28;8794;-40
2021/06/12 03:32:33;;;;;;;;;0.75;0.50;;;;;;;;5078382;28;8828;-40
2021/06/12 03:35:00;;;;;;;;;0.50;0.50;;;;;;;;5083233;28;8783;-40
2021/06/12 03:37:25;;;;;;;;;1.25;0.50;;;;;;;;5083076;28;8907;-40
2021/06/12 03:39:51;;;;;;;;;1.00;1.00;;;;;;;;5072045;28;8897;-39
2021/06/12 03:42:16;;;;;;;;;0.33;0.33;;;;;;;;5080005;28;9296;-40
2021/06/12 03:44:44;;;;;;;;;1.00;1.00;;;;;;;;5078108;28;8794;-40
2021/06/12 03:47:09;;;;;;;;;0.00;0.00;;;;;;;;5095171;28;8758;-39
2021/06/12 03:49:35;;;;;;;;;0.00;0.00;;;;;;;;5099488;27;8778;-40
2021/06/12 03:52:01;;;;;;;;;0.50;0.50;;;;;;;;5094515;28;8730;-39
2021/06/12 03:54:27;;;;;;;;;2.00;1.00;;;;;;;;5078951;28;8787;-39
2021/06/12 03:56:52;;;;;;;;;1.00;1.00;;;;;;;;5082634;28;8874;-39
2021/06/12 03:59:18;;;;;;;;;2.00;1.00;;;;;;;;5079616;28;11417;-38
2021/06/12 04:01:43;;;;;;;;;0.00;0.00;;;;;;;;5073551;28;8866;-38
2021/06/12 04:04:08;;;;;;;;;0.33;0.33;;;;;;;;5079252;28;8777;-39
2021/06/12 04:06:33;;;;;;;;;0.00;0.00;;;;;;;;5080639;28;8812;-39
2021/06/12 04:08:59;;;;;;;;;1.00;0.33;;;;;;;;5081507;28;8817;-39
2021/06/12 04:11:24;;;;;;;;;0.33;0.33;;;;;;;;5099936;28;8804;-39
2021/06/12 04:13:49;;;;;;;;;0.33;0.33;;;;;;;;5096612;27;8754;-40
2021/06/12 04:16:15;;;;;;;;;1.00;1.00;;;;;;;;5104303;27;8889;-39
2021/06/12 04:18:40;;;;;;;;;0.33;0.33;;;;;;;;5099690;28;9830;-39
2021/06/12 04:21:05;;;;;;;;;0.33;0.33;;;;;;;;5084900;28;8867;-39
2021/06/12 04:23:31;;;;;;;;;0.33;0.00;;;;;;;;5085185;28;8774;-39
2021/06/12 04:25:56;;;;;;;;;0.00;0.00;;;;;;;;5080375;28;8770;-40
2021/06/12 04:28:22;;;;;;;;;1.00;1.00;;;;;;;;5092427;27;8797;-40
2021/06/12 04:30:47;;;;;;;;;1.00;1.00;;;;;;;;5094805;27;8949;-39
2021/06/12 04:33:12;;;;;;;;;0.33;0.33;;;;;;;;5080335;28;8770;-39
2021/06/12 04:35:37;;;;;;;;;1.00;1.00;;;;;;;;5083422;28;8835;-40
2021/06/12 04:38:03;;;;;;;;;1.00;1.00;;;;;;;;5080203;28;8840;-39
2021/06/12 04:40:30;;;;;;;;;1.67;1.67;;;;;;;;5084094;28;8794;-39
2021/06/12 04:42:56;;;;;;;;;0.75;0.75;;;;;;;;5088097;27;8886;-40
2021/06/12 04:45:21;;;;;;;;;0.33;0.33;;;;;;;;5102367;27;8784;-40
2021/06/12 04:47:46;;;;;;;;;0.33;0.33;;;;;;;;5081305;28;9538;-40
2021/06/12 04:50:12;;;;;;;;;1.00;1.00;;;;;;;;5082596;28;8794;-40
2021/06/12 04:52:37;;;;;;;;;0.33;0.33;;;;;;;;5084163;28;8790;-40
2021/06/12 04:55:04;;;;;;;;;0.67;0.67;;;;;;;;5086501;28;8816;-40
2021/06/12 04:57:29;;;;;;;;;0.50;0.50;;;;;;;;5078936;28;8857;-40
2021/06/12 04:59:54;;;;;;;;;0.33;0.33;;;;;;;;5084528;28;8900;-40
2021/06/12 05:02:19;;;;;;;;;0.33;0.33;;;;;;;;5078354;28;8792;-40
2021/06/12 05:04:45;;;;;;;;;0.00;0.00;;;;;;;;5081904;28;9841;-40
2021/06/12 05:07:10;;;;;;;;;1.00;1.00;;;;;;;;5081164;28;8775;-40
2021/06/12 05:09:35;;;;;;;;;0.33;0.33;;;;;;;;5084646;28;8907;-40
2021/06/12 05:12:00;;;;;;;;;1.00;1.00;;;;;;;;5081645;28;9482;-41
2021/06/12 05:14:25;;;;;;;;;0.00;0.00;;;;;;;;5082504;28;8801;-40
2021/06/12 05:16:51;;;;;;;;;0.33;0.33;;;;;;;;5077419;28;9239;-41
2021/06/12 05:19:16;;;;;;;;;0.00;0.00;;;;;;;;5086149;28;8801;-41
2021/06/12 05:21:43;;;;;;;;;0.00;0.00;;;;;;;;5086137;27;8896;-41
2021/06/12 05:24:09;;;;;;;;;0.00;0.00;;;;;;;;5081743;28;9543;-39
2021/06/12 05:26:34;;;;;;;;;1.00;1.00;;;;;;;;5093840;28;8817;-40
2021/06/12 05:29:00;;;;;;;;;0.00;0.00;;;;;;;;5101703;27;8830;-41
2021/06/12 05:31:25;;;;;;;;;1.00;0.00;;;;;;;;5098586;27;8819;-41
2021/06/12 05:33:50;;;;;;;;;0.00;0.00;;;;;;;;5105713;27;8792;-40
2021/06/12 05:36:16;;;;;;;;;0.00;0.00;;;;;;;;5102582;27;9818;-41
2021/06/12 05:38:42;;;;;;;;;0.50;0.50;;;;;;;;5087433;28;8782;-40
2021/06/12 05:41:07;;;;;;;;;0.67;0.67;;;;;;;;5079837;28;8765;-41
2021/06/12 05:43:32;;;;;;;;;0.00;0.00;;;;;;;;5086286;28;8774;-40
2021/06/12 05:45:57;;;;;;;;;2.00;1.00;;;;;;;;5077758;28;8774;-41
2021/06/12 05:48:25;;;;;;;;;0.00;0.00;;;;;;;;5083197;28;8802;-40
2021/06/12 05:50:50;;;;;;;;;0.00;0.00;;;;;;;;5082459;28;8848;-41
2021/06/12 05:53:15;;;;;;;;;0.00;0.00;;;;;;;;5099627;28;8794;-41
2021/06/12 05:55:40;;;;;;;;;0.00;0.00;;;;;;;;5097601;27;8806;-40
2021/06/12 05:58:05;;;;;;;;;0.67;0.67;;;;;;;;5097354;28;8848;-41
2021/06/12 06:00:31;;;;;;;;;0.00;0.00;;;;;;;;5095216;27;8852;-40
2021/06/12 06:02:56;;;;;;;;;0.00;0.00;;;;;;;;5079944;28;8798;-41
2021/06/12 06:05:21;;;;;;;;;0.00;0.00;;;;;;;;5080863;28;8816;-40
2021/06/12 06:07:47;;;;;;;;;0.00;0.00;;;;;;;;5084339;28;8877;-37
2021/06/12 06:10:12;;;;;;;;;0.00;0.00;;;;;;;;5081345;28;8773;-36
2021/06/12 06:12:37;;;;;;;;;0.00;0.00;;;;;;;;5078583;28;8773;-36
2021/06/12 06:15:04;;;;;;;;;0.00;0.00;;;;;;;;5082386;28;8894;-36
2021/06/12 06:17:29;;;;;;;;;0.00;0.00;;;;;;;;5078060;28;8793;-36
2021/06/12 06:19:54;;;;;;;;;0.00;0.00;;;;;;;;5081061;28;8793;-37
2021/06/12 06:22:19;;;;;;;;;0.33;0.33;;;;;;;;5074867;28;8820;-36
2021/06/12 06:24:44;;;;;;;;;1.00;1.00;;;;;;;;5074161;28;8798;-36
2021/06/12 06:27:10;;;;;;;;;0.00;0.00;;;;;;;;5083065;28;9582;-36
2021/06/12 06:29:35;;;;;;;;;0.00;0.00;;;;;;;;5082999;28;8932;-36
2021/06/12 06:32:00;;;;;;;;;0.00;0.00;;;;;;;;5082886;28;8797;-36
2021/06/12 06:34:26;;;;;;;;;0.00;0.00;;;;;;;;5078828;28;8786;-38
2021/06/12 06:36:51;;;;;;;;;0.00;0.00;;;;;;;;5082387;28;8782;-37
2021/06/12 06:39:16;;;;;;;;;0.00;0.00;;;;;;;;5078756;28;8916;-37
2021/06/12 06:41:41;;;;;;;;;0.00;0.00;;;;;;;;5085668;28;9592;-36
2021/06/12 06:44:07;;;;;;;;;1.00;1.00;;;;;;;;5082184;28;8797;-37
2021/06/12 06:46:32;;;;;;;;;0.00;0.00;;;;;;;;5083092;28;9318;-39
2021/06/12 06:48:57;;;;;;;;;0.67;0.67;;;;;;;;5076078;28;8820;-38
2021/06/12 06:51:23;;;;;;;;;0.00;0.00;;;;;;;;5078432;28;8790;-35
2021/06/12 06:53:49;;;;;;;;;0.00;0.00;;;;;;;;5080360;28;8811;-38
2021/06/12 06:56:14;;;;;;;;;0.00;0.00;;;;;;;;5095540;28;8885;-39
2021/06/12 06:58:39;;;;;;;;;0.00;0.00;;;;;;;;5087725;28;8892;-38
2021/06/12 07:01:05;;;;;;;;;0.00;0.00;;;;;;;;5082615;28;8890;-38
2021/06/12 07:03:30;;;;;;;;;0.00;0.00;;;;;;;;5079416;28;8770;-38
2021/06/12 07:05:55;;;;;;;;;0.00;0.00;;;;;;;;5084571;28;8797;-38
2021/06/12 07:08:20;;;;;;;;;0.00;0.00;;;;;;;;5081173;28;8794;-37
2021/06/12 07:10:46;;;;;;;;;0.00;0.00;;;;;;;;5082449;28;8797;-37
2021/06/12 07:13:11;;;;;;;;;0.00;0.00;;;;;;;;5086661;28;8776;-37
2021/06/12 07:15:37;;;;;;;;;0.00;0.00;;;;;;;;5099267;28;8893;-37
2021/06/12 07:18:02;;;;;;;;;0.00;0.00;;;;;;;;5098635;27;8768;-37
2021/06/12 07:20:28;;;;;;;;;0.00;0.00;;;;;;;;5100287;28;8894;-37
2021/06/12 07:22:54;;;;;;;;;0.00;0.00;;;;;;;;5093804;27;8928;-38
2021/06/12 07:25:19;;;;;;;;;0.00;0.00;;;;;;;;5093049;28;8772;-38
2021/06/12 07:27:44;;;;;;;;;0.33;0.33;;;;;;;;5085369;28;8825;-38
2021/06/12 07:30:10;;;;;;;;;0.00;0.00;;;;;;;;5073115;28;8868;-37
2021/06/12 07:32:35;;;;;;;;;0.00;0.00;;;;;;;;5071729;28;8820;-36
2021/06/12 07:35:01;;;;;;;;;0.00;0.00;;;;;;;;5074431;28;8774;-37
2021/06/12 07:37:26;;;;;;;;;0.00;0.00;;;;;;;;5071158;28;8775;-39
2021/06/12 07:39:51;;;;;;;;;0.00;0.00;;;;;;;;5075550;28;8998;-37
2021/06/12 07:42:16;;;;;;;;;0.00;0.00;;;;;;;;5071968;28;9470;-37
2021/06/12 07:44:42;;;;;;;;;0.00;0.00;;;;;;;;5075509;28;8992;-37
2021/06/12 07:47:07;;;;;;;;;0.00;0.00;;;;;;;;5073959;28;9603;-37
2021/06/12 07:49:32;;;;;;;;;0.00;0.00;;;;;;;;5086671;28;8798;-37
2021/06/12 07:51:58;;;;;;;;;0.00;0.00;;;;;;;;5089632;27;8838;-37
2021/06/12 07:54:23;;;;;;;;;0.00;0.00;;;;;;;;5094849;27;8889;-37
2021/06/12 07:56:48;;;;;;;;;0.00;0.00;;;;;;;;5093773;27;8805;-37
2021/06/12 07:59:13;;;;;;;;;0.00;0.00;;;;;;;;5094295;28;9652;-37
2021/06/12 08:01:39;;;;;;;;;0.00;0.00;;;;;;;;5095598;27;8792;-37
2021/06/12 08:04:04;;;;;;;;;0.00;0.00;;;;;;;;5096173;28;8786;-36
2021/06/12 08:06:29;;;;;;;;;0.00;0.00;;;;;;;;5092085;27;8812;-37
2021/06/12 08:08:55;;;;;;;;;0.00;0.00;;;;;;;;5096147;28;8855;-37
2021/06/12 08:11:20;;;;;;;;;0.00;0.00;;;;;;;;5085506;28;8800;-36
2021/06/12 08:13:45;;;;;;;;;0.00;0.00;;;;;;;;5093996;28;8817;-37
2021/06/12 08:16:10;;;;;;;;;0.00;0.00;;;;;;;;5093427;27;8793;-37
2021/06/12 08:18:35;;;;;;;;;0.00;0.00;;;;;;;;5088742;28;8816;-39
2021/06/12 08:21:01;;;;;;;;;0.00;0.00;;;;;;;;5075205;28;8833;-38
2021/06/12 08:23:26;;;;;;;;;0.00;0.00;;;;;;;;5072991;28;8783;-38
2021/06/12 08:25:51;;;;;;;;;0.00;0.00;;;;;;;;5070900;28;8802;-38
2021/06/12 08:28:16;;;;;;;;;0.00;0.00;;;;;;;;5070956;28;8789;-38
2021/06/12 08:30:42;;;;;;;;;0.00;0.00;;;;;;;;5071017;28;9526;-37
2021/06/12 08:33:08;;;;;;;;;0.33;0.33;;;;;;;;5074723;28;8793;-37
2021/06/12 08:35:34;;;;;;;;;0.00;0.00;;;;;;;;5094854;28;8785;-37
2021/06/12 08:37:59;;;;;;;;;0.00;0.00;;;;;;;;5094995;28;8761;-38
2021/06/12 08:40:25;;;;;;;;;0.00;0.00;;;;;;;;5095976;27;8790;-39
2021/06/12 08:42:50;;;;;;;;;0.00;0.00;;;;;;;;5091475;28;8777;-39
2021/06/12 08:45:22;;;;;;;;;0.00;0.00;;;;;;;;5077717;28;8782;-38
2021/06/12 08:47:47;;;;;;;;;0.00;0.00;;;;;;;;5077096;28;8931;-38
2021/06/12 08:50:13;;;;;;;;;0.00;0.00;;;;;;;;5078479;28;8991;-39
2021/06/12 08:52:39;;;;;;;;;0.00;0.00;;;;;;;;5074924;28;8800;-39
2021/06/12 08:55:05;;;;;;;;;0.00;0.00;;;;;;;;5078268;28;8798;-39
2021/06/12 08:57:30;;;;;;;;;0.00;0.00;;;;;;;;5080220;28;8737;-39
2021/06/12 08:59:56;;;;;;;;;0.00;0.00;;;;;;;;5098889;28;8799;-37
2021/06/12 09:02:21;;;;;;;;;0.00;0.00;;;;;;;;5082412;28;8770;-37
2021/06/12 09:04:49;;;;;;;;;0.00;0.00;;;;;;;;5080913;28;8781;-37
2021/06/12 09:07:20;;;;;;;;;0.00;0.00;;;;;;;;5090313;27;8851;-41
2021/06/12 09:09:46;;;;;;;;;0.00;0.00;;;;;;;;5093626;27;8756;-37
2021/06/12 09:12:12;;;;;;;;;0.00;0.00;;;;;;;;5075292;28;8820;-37
2021/06/12 09:14:38;;;;;;;;;0.00;0.00;;;;;;;;5083943;28;8787;-37
2021/06/12 09:17:03;;;;;;;;;0.33;0.33;;;;;;;;5082348;28;8870;-37
2021/06/12 09:19:37;;;;;;;;;0.00;0.00;;;;;;;;5089639;28;8912;-36
2021/06/12 09:22:03;;;;;;;;;0.50;0.00;;;;;;;;5099934;27;8745;-39
2021/06/12 09:24:41;;;;;;;;;0.00;0.00;;;;;;;;5094085;27;8794;-36
2021/06/12 09:27:16;;;;;;;;;0.00;0.00;;;;;;;;5076818;28;8832;-36
2021/06/12 09:29:42;;;;;;;;;0.00;0.00;;;;;;;;5095516;28;8831;-39
2021/06/12 09:32:12;;;;;;;;;1.00;1.00;;;;;;;;5082139;28;8899;-36
2021/06/12 09:34:37;;;;;;;;;0.00;0.00;;;;;;;;5078737;28;8782;-39
2021/06/12 09:37:10;;;;;;;;;0.00;0.00;;;;;;;;5087048;27;8859;-37
2021/06/12 09:39:38;;;;;;;;;0.00;0.00;;;;;;;;5096432;28;9522;-38
2021/06/12 09:42:03;;;;;;;;;0.00;0.00;;;;;;;;5093190;27;8796;-37
2021/06/12 09:44:33;;;;;;;;;0.00;0.00;;;;;;;;5094685;27;8873;-37
2021/06/12 09:46:59;;;;;;;;;0.00;0.00;;;;;;;;5083129;28;9959;-37
2021/06/12 09:49:38;;;;;;;;;0.00;0.00;;;;;;;;5081242;28;9639;-37
2021/06/12 09:52:06;;;;;;;;;0.00;0.00;;;;;;;;5075435;28;8789;-37
2021/06/12 09:54:35;;;;;;;;;0.00;0.00;;;;;;;;5076938;28;8730;-37
2021/06/12 09:57:00;;;;;;;;;0.00;0.00;;;;;;;;5077470;28;9410;-37
2021/06/12 09:59:26;;;;;;;;;0.00;0.00;;;;;;;;5076564;28;8808;-37
2021/06/12 10:01:51;;;;;;;;;0.33;0.33;;;;;;;;5073682;28;8765;-37
2021/06/12 10:04:17;;;;;;;;;0.00;0.00;;;;;;;;5075929;28;8803;-36
2021/06/12 10:06:42;;;;;;;;;0.00;0.00;;;;;;;;5069656;28;8788;-36
2021/06/12 10:09:07;;;;;;;;;0.00;0.00;;;;;;;;5077480;28;8843;-38
2021/06/12 10:11:33;;;;;;;;;0.00;0.00;;;;;;;;5078210;28;8809;-36
2021/06/12 10:13:59;;;;;;;;;0.00;0.00;;;;;;;;5087727;28;8911;-37
2021/06/12 10:16:25;;;;;;;;;0.00;0.00;;;;;;;;5086799;27;8792;-39
2021/06/12 10:18:51;;;;;;;;;0.00;0.00;;;;;;;;5083478;28;8786;-36
2021/06/12 10:21:16;;;;;;;;;0.00;0.00;;;;;;;;5101914;27;8805;-36
2021/06/12 10:23:43;;;;;;;;;0.00;0.00;;;;;;;;5079882;28;8745;-37
2021/06/12 10:26:09;;;;;;;;;0.00;0.00;;;;;;;;5077752;28;8796;-37
2021/06/12 10:28:34;;;;;;;;;0.00;0.00;;;;;;;;5077195;28;8931;-36
2021/06/12 10:31:06;;;;;;;;;0.00;0.00;;;;;;;;5085754;28;8790;-37
2021/06/12 10:33:33;;;;;;;;;0.00;0.00;;;;;;;;5099862;27;9494;-37
2021/06/12 10:36:10;;;;;;;;;0.00;0.00;;;;;;;;5100942;27;8824;-37
2021/06/12 10:38:36;;;;;;;;;0.00;0.00;;;;;;;;5078762;28;8804;-36
2021/06/12 10:41:12;;;;;;;;;0.00;0.00;;;;;;;;5080144;28;8782;-39
2021/06/12 10:43:38;;;;;;;;;0.00;0.00;;;;;;;;5085564;28;9293;-36
2021/06/12 10:46:06;;;;;;;;;0.25;0.00;;;;;;;;5087463;28;8782;-36
2021/06/12 10:48:45;;;;;;;;;0.00;0.00;;;;;;;;5082116;28;8765;-36
2021/06/12 10:51:15;;;;;;;;;0.00;0.00;;;;;;;;5081192;28;8788;-36
2021/06/12 10:53:43;;;;;;;;;0.00;0.00;;;;;;;;5082583;28;8781;-36
2021/06/12 10:56:09;;;;;;;;;0.00;0.00;;;;;;;;5078955;28;8914;-36
2021/06/12 10:58:34;;;;;;;;;1.00;0.00;;;;;;;;5078870;28;8752;-37
2021/06/12 11:01:06;;;;;;;;;0.33;0.33;;;;;;;;5078656;28;8752;-37
2021/06/12 11:04:18;;;;;;;;;0.00;0.00;;;;;;;;5081994;28;8748;-39
2021/06/12 11:07:05;;;;;;;;;0.00;0.00;;;;;;;;5086856;27;8740;-38
2021/06/12 11:09:32;;;;;;;;;0.50;0.50;;;;;;;;5099979;27;11081;-36
2021/06/12 11:11:59;;;;;;;;;0.00;0.00;;;;;;;;5103032;27;8776;-37
2021/06/12 11:14:34;;;;;;;;;0.75;0.75;;;;;;;;5079807;28;8799;-37
2021/06/12 11:17:18;;;;;;;;;0.00;0.00;;;;;;;;5079996;28;8812;-37
2021/06/12 11:19:43;;;;;;;;;0.25;0.25;;;;;;;;5073867;28;8816;-36
2021/06/12 11:22:24;;;;;;;;;0.00;0.00;;;;;;;;5087060;28;8774;-37
2021/06/12 11:24:51;;;;;;;;;0.00;0.00;;;;;;;;5087857;28;8770;-36
2021/06/12 11:27:27;;;;;;;;;0.00;0.00;;;;;;;;5077911;28;8830;-36
2021/06/12 11:30:11;;;;;;;;;0.75;0.00;;;;;;;;5077218;28;8815;-37
2021/06/12 11:32:37;;;;;;;;;0.25;0.25;;;;;;;;5079414;28;8793;-38
2021/06/12 11:35:02;;;;;;;;;0.00;0.00;;;;;;;;5078467;28;8798;-37
2021/06/12 11:37:28;;;;;;;;;0.00;0.00;;;;;;;;5079836;28;8876;-37
2021/06/12 11:39:55;;;;;;;;;1.00;0.00;;;;;;;;5080273;28;8794;-37
2021/06/12 11:42:20;;;;;;;;;1.00;1.00;;;;;;;;5073949;28;8807;-37
2021/06/12 11:44:46;;;;;;;;;1.00;1.00;;;;;;;;5080516;28;8790;-37
2021/06/12 11:47:11;;;;;;;;;1.00;0.67;;;;;;;;5093863;27;8790;-37
2021/06/12 11:49:47;;;;;;;;;0.00;0.00;;;;;;;;5096549;27;9518;-37
2021/06/12 11:52:12;;;;;;;;;0.00;0.00;;;;;;;;5085266;28;8770;-37
2021/06/12 11:54:38;;;;;;;;;0.00;0.00;;;;;;;;5076579;28;8773;-37
2021/06/12 11:57:03;;;;;;;;;0.00;0.00;;;;;;;;5080012;28;8806;-36
2021/06/12 11:59:30;;;;;;;;;1.00;0.00;;;;;;;;5080728;28;8803;-37
2021/06/12 12:01:58;;;;;;;;;1.00;1.00;;;;;;;;5088705;27;8749;-37
2021/06/12 12:04:24;;;;;;;;;0.75;0.75;;;;;;;;5097368;28;9328;-37
2021/06/12 12:06:51;;;;;;;;;1.00;1.00;;;;;;;;5092685;27;8882;-36
2021/06/12 12:09:28;;;;;;;;;0.75;0.75;;;;;;;;5098147;28;10400;-37
2021/06/12 12:11:57;;;;;;;;;0.00;0.00;;;;;;;;5092475;27;8793;-37
2021/06/12 12:14:36;;;;;;;;;0.00;0.00;;;;;;;;5098030;28;8842;-37
2021/06/12 12:17:03;;;;;;;;;0.25;0.25;;;;;;;;5078077;28;8801;-37
2021/06/12 12:19:28;;;;;;;;;1.00;1.00;;;;;;;;5078210;28;8788;-37
2021/06/12 12:21:55;;;;;;;;;0.00;0.00;;;;;;;;5079440;28;8785;-37
2021/06/12 12:24:20;;;;;;;;;0.50;0.50;;;;;;;;5096472;28;8791;-36
2021/06/12 12:26:53;;;;;;;;;0.67;0.67;;;;;;;;5096976;28;8825;-39
2021/06/12 12:29:21;;;;;;;;;0.00;0.00;;;;;;;;5098099;28;8778;-39
2021/06/12 12:31:47;;;;;;;;;0.00;0.00;;;;;;;;5098124;28;8782;-39
2021/06/12 12:34:13;;;;;;;;;0.00;0.00;;;;;;;;5094420;28;9529;-39
2021/06/12 12:36:46;;;;;;;;;0.00;0.00;;;;;;;;5097629;27;8766;-38
2021/06/12 12:39:12;;;;;;;;;0.00;0.00;;;;;;;;5100135;28;9649;-37
2021/06/12 12:41:37;;;;;;;;;0.00;0.00;;;;;;;;5079818;28;8809;-37
2021/06/12 12:44:04;;;;;;;;;0.00;0.00;;;;;;;;5073970;28;8784;-36
2021/06/12 12:46:29;;;;;;;;;0.00;0.00;;;;;;;;5091116;27;8848;-37
2021/06/12 12:48:54;;;;;;;;;1.00;1.00;;;;;;;;5099991;28;8784;-37
2021/06/12 12:51:28;;;;;;;;;0.00;0.00;;;;;;;;5101473;28;8789;-37
2021/06/12 12:53:53;;;;;;;;;1.00;1.00;;;;;;;;5102761;28;8778;-37
2021/06/12 12:56:19;;;;;;;;;0.00;0.00;;;;;;;;5100250;27;9513;-36
2021/06/12 12:58:50;;;;;;;;;0.33;0.33;;;;;;;;5089794;28;8872;-37
2021/06/12 13:01:15;;;;;;;;;0.50;0.50;;;;;;;;5082529;28;8888;-39
2021/06/12 13:03:48;;;;;;;;;0.00;0.00;;;;;;;;5078321;28;8882;-37
2021/06/12 13:06:31;;;;;;;;;0.00;0.00;;;;;;;;5085410;28;8770;-36
2021/06/12 13:09:14;;;;;;;;;1.00;1.00;;;;;;;;5083251;28;8929;-36
2021/06/12 13:11:41;;;;;;;;;0.00;0.00;;;;;;;;5104850;27;8801;-39
2021/06/12 13:14:06;;;;;;;;;1.00;1.00;;;;;;;;5100471;27;8806;-37
2021/06/12 13:16:31;;;;;;;;;0.00;0.00;;;;;;;;5100875;27;8796;-36
2021/06/12 13:19:11;;;;;;;;;0.00;0.00;;;;;;;;5090932;28;8762;-36
2021/06/12 13:21:44;;;;;;;;;0.00;0.00;;;;;;;;5074329;28;8780;-38
2021/06/12 13:24:09;;;;;;;;;0.75;0.75;;;;;;;;5080145;28;8808;-36
2021/06/12 13:26:39;;;;;;;;;0.00;0.00;;;;;;;;5102961;28;9801;-37
2021/06/12 13:29:15;;;;;;;;;0.50;0.50;;;;;;;;5102841;27;8814;-37
2021/06/12 13:31:41;;;;;;;;;0.25;0.25;;;;;;;;5098007;28;8766;-40
2021/06/12 13:34:21;;;;;;;;;1.00;1.00;;;;;;;;5091659;28;8923;-37
2021/06/12 13:36:54;;;;;;;;;0.00;0.00;;;;;;;;5077615;28;8910;-37
2021/06/12 13:39:36;;;;;;;;;1.00;1.00;;;;;;;;5079951;28;8777;-39
2021/06/12 13:42:08;;;;;;;;;0.00;0.00;;;;;;;;5078309;28;8762;-38
2021/06/12 13:44:33;;;;;;;;;1.00;1.00;;;;;;;;5100402;27;8812;-36
2021/06/12 13:46:58;;;;;;;;;0.67;0.67;;;;;;;;5086089;28;9637;-39
2021/06/12 13:49:24;;;;;;;;;0.00;0.00;;;;;;;;5097210;27;8896;-37
2021/06/12 13:51:49;;;;;;;;;0.00;0.00;;;;;;;;5097296;28;9520;-37
2021/06/12 13:54:14;;;;;;;;;0.00;0.00;;;;;;;;5085363;28;8804;-38
2021/06/12 13:56:42;;;;;;;;;0.00;0.00;;;;;;;;5105220;28;8889;-39
2021/06/12 13:59:07;;;;;;;;;0.00;0.00;;;;;;;;5086432;28;9280;-38
2021/06/12 14:01:32;;;;;;;;;0.00;0.00;;;;;;;;5081602;28;8795;-37
2021/06/12 14:03:57;;;;;;;;;0.00;0.00;;;;;;;;5078981;28;8789;-37
2021/06/12 14:06:22;;;;;;;;;0.00;0.00;;;;;;;;5085017;27;9445;-37
2021/06/12 14:08:48;;;;;;;;;0.00;0.00;;;;;;;;5100692;27;8809;-38
2021/06/12 14:11:13;;;;;;;;;0.67;0.67;;;;;;;;5095720;28;8933;-37
2021/06/12 14:13:38;;;;;;;;;0.67;0.67;;;;;;;;5085812;28;8789;-37
2021/06/12 14:16:04;;;;;;;;;0.00;0.00;;;;;;;;5077413;28;8780;-37
2021/06/12 14:18:29;;;;;;;;;0.00;0.00;;;;;;;;5084077;28;9553;-36
2021/06/12 14:20:55;;;;;;;;;0.00;0.00;;;;;;;;5104591;28;9086;-36
2021/06/12 14:23:20;;;;;;;;;1.00;0.00;;;;;;;;5081573;28;8792;-38
2021/06/12 14:25:48;;;;;;;;;0.00;0.00;;;;;;;;5078462;28;8834;-37
2021/06/12 14:28:15;;;;;;;;;0.00;0.00;;;;;;;;5077527;28;8818;-37
2021/06/12 14:30:40;;;;;;;;;0.00;0.00;;;;;;;;5078706;28;8846;-37
2021/06/12 14:33:05;;;;;;;;;0.00;0.00;;;;;;;;5080924;28;8786;-37
2021/06/12 14:35:30;;;;;;;;;0.00;0.00;;;;;;;;5079898;28;8766;-37
2021/06/12 14:37:55;;;;;;;;;0.00;0.00;;;;;;;;5076456;28;8781;-37
2021/06/12 14:40:21;;;;;;;;;0.00;0.00;;;;;;;;5089271;28;8795;-37
2021/06/12 14:42:47;;;;;;;;;0.00;0.00;;;;;;;;5100942;27;8748;-37
2021/06/12 14:45:13;;;;;;;;;0.00;0.00;;;;;;;;5098339;27;8848;-37
2021/06/12 14:47:38;;;;;;;;;0.00;0.00;;;;;;;;5094938;28;8872;-37
2021/06/12 14:50:04;;;;;;;;;0.00;0.00;;;;;;;;5074879;28;8802;-37
2021/06/12 14:52:29;;;;;;;;;0.00;0.00;;;;;;;;5079028;28;8770;-37
2021/06/12 14:54:54;;;;;;;;;0.00;0.00;;;;;;;;5076915;28;8781;-37